createdAt,value
2022-07-29T00:00:06.510Z,98010.25
2022-07-29T00:02:34.725Z,98005.72
2022-07-29T00:05:02.858Z,98007.00
2022-07-29T00:07:29.613Z,97994.22
2022-07-29T00:09:57.147Z,97996.06
2022-07-29T00:12:26.686Z,97991.81
2022-07-29T00:14:55.863Z,97984.31
2022-07-29T00:17:24.614Z,97970.47
2022-07-29T00:19:51.558Z,97969.09
2022-07-29T00:22:18.653Z,97958.44
2022-07-29T00:24:45.625Z,97958.97
2022-07-29T00:27:12.311Z,97966.94
2022-07-29T00:29:39.241Z,97958.16
2022-07-29T00:32:07.573Z,97956.84
2022-07-29T00:34:52.974Z,97958.44
2022-07-29T00:37:21.891Z,97956.81
2022-07-29T00:39:49.417Z,97960.88
2022-07-29T00:42:19.132Z,97960.63
2022-07-29T00:44:45.828Z,97951.53
2022-07-29T00:47:13.484Z,97955.28
2022-07-29T00:49:42.400Z,97960.34
2022-07-29T00:52:11.475Z,97952.63
2022-07-29T00:54:44.256Z,97956.34
2022-07-29T00:57:13.704Z,97958.44
2022-07-29T00:59:40.909Z,97956.34
2022-07-29T01:02:07.803Z,97949.19
2022-07-29T01:04:35.001Z,97944.91
2022-07-29T01:07:06.340Z,97950.47
2022-07-29T01:09:46.113Z,97951.00
2022-07-29T01:12:22.431Z,97940.66
2022-07-29T01:14:53.072Z,97948.69
2022-07-29T01:17:41.400Z,97955.31
2022-07-29T01:21:02.169Z,97961.22
2022-07-29T01:23:57.988Z,97968.50
2022-07-29T01:26:42.031Z,97958.88
2022-07-29T01:29:16.403Z,97976.44
2022-07-29T01:32:06.108Z,97963.88
2022-07-29T01:34:44.822Z,97987.38
2022-07-29T01:37:47.170Z,97973.53
2022-07-29T01:40:45.995Z,97961.28
2022-07-29T01:43:19.724Z,97959.69
2022-07-29T01:45:58.711Z,97965.78
2022-07-29T01:48:40.197Z,97966.06
2022-07-29T01:51:29.153Z,97969.28
2022-07-29T01:54:21.021Z,97965.81
2022-07-29T01:56:52.309Z,97964.44
2022-07-29T01:59:20.906Z,97955.41
2022-07-29T02:01:54.397Z,97949.81
2022-07-29T02:04:33.560Z,97952.78
2022-07-29T02:07:07.255Z,97955.44
2022-07-29T02:09:37.618Z,97955.97
2022-07-29T02:12:08.311Z,97961.31
2022-07-29T02:14:40.585Z,97954.16
2022-07-29T02:17:08.957Z,97958.69
2022-07-29T02:19:40.509Z,97957.63
2022-07-29T02:22:08.501Z,97968.28
2022-07-29T02:24:38.624Z,97968.81
2022-07-29T02:27:05.444Z,97959.22
2022-07-29T02:29:34.273Z,97949.63
2022-07-29T02:32:05.731Z,97948.31
2022-07-29T02:34:35.197Z,97958.41
2022-07-29T02:37:04.501Z,97946.72
2022-07-29T02:39:32.631Z,97957.63
2022-07-29T02:42:06.687Z,97960.84
2022-07-29T02:44:36.024Z,97942.41
2022-07-29T02:47:41.353Z,97942.72
2022-07-29T02:50:38.240Z,97960.06
2022-07-29T02:53:19.920Z,97963.03
2022-07-29T02:56:00.117Z,97957.44
2022-07-29T02:58:40.445Z,97955.56
2022-07-29T03:01:22.686Z,97955.03
2022-07-29T03:03:53.989Z,97949.72
2022-07-29T03:06:37.646Z,97955.31
2022-07-29T03:09:12.912Z,97946.25
2022-07-29T03:11:49.618Z,97952.66
2022-07-29T03:14:20.511Z,97957.75
2022-07-29T03:16:49.126Z,97962.00
2022-07-29T03:19:17.206Z,97963.34
2022-07-29T03:21:44.269Z,97956.13
2022-07-29T03:24:11.470Z,97950.31
2022-07-29T03:26:38.626Z,97952.41
2022-07-29T03:29:05.518Z,97943.88
2022-07-29T03:31:33.506Z,97953.19
2022-07-29T03:34:00.531Z,97951.56
2022-07-29T03:36:27.548Z,97948.09
2022-07-29T03:38:55.501Z,97941.19
2022-07-29T03:41:24.914Z,97940.94
2022-07-29T03:43:55.187Z,97937.44
2022-07-29T03:46:27.474Z,97944.41
2022-07-29T03:49:01.250Z,97948.09
2022-07-29T03:51:33.906Z,97946.75
2022-07-29T03:54:09.661Z,97949.66
2022-07-29T03:56:48.377Z,97945.16
2022-07-29T03:59:18.676Z,97940.09
2022-07-29T04:01:47.185Z,97948.91
2022-07-29T04:04:14.492Z,97949.66
2022-07-29T04:06:44.123Z,97952.31
2022-07-29T04:09:11.777Z,97958.72
2022-07-29T04:12:01.736Z,97957.94
2022-07-29T04:14:29.763Z,97949.69
2022-07-29T04:16:56.711Z,97953.69
2022-07-29T04:19:23.638Z,97955.56
2022-07-29T04:21:50.640Z,97964.88
2022-07-29T04:24:17.858Z,97965.41
2022-07-29T04:26:46.903Z,97953.66
2022-07-29T04:29:15.173Z,97969.91
2022-07-29T04:31:43.528Z,97984.03
2022-07-29T04:34:11.951Z,97975.25
2022-07-29T04:36:38.862Z,97967.81
2022-07-29T04:39:06.032Z,97973.66
2022-07-29T04:41:33.698Z,97968.88
2022-07-29T04:44:07.181Z,97968.09
2022-07-29T04:46:35.263Z,97970.75
2022-07-29T04:49:04.341Z,97977.94
2022-07-29T04:51:31.800Z,97972.63
2022-07-29T04:53:59.692Z,97969.41
2022-07-29T04:56:26.687Z,97969.97
2022-07-29T04:58:53.721Z,97971.03
2022-07-29T05:01:20.999Z,97980.38
2022-07-29T05:03:47.790Z,97967.28
2022-07-29T05:06:14.539Z,97992.06
2022-07-29T05:08:41.967Z,97989.66
2022-07-29T05:11:12.538Z,97982.72
2022-07-29T05:13:45.957Z,97993.41
2022-07-29T05:16:14.351Z,97983.25
2022-07-29T05:18:42.093Z,97986.50
2022-07-29T05:21:08.782Z,97977.41
2022-07-29T05:23:35.625Z,97989.66
2022-07-29T05:26:02.639Z,97980.09
2022-07-29T05:28:29.531Z,97983.03
2022-07-29T05:30:57.230Z,97978.50
2022-07-29T05:33:35.109Z,97985.66
2022-07-29T05:36:08.536Z,97986.75
2022-07-29T05:38:36.958Z,97982.22
2022-07-29T05:41:05.119Z,97985.94
2022-07-29T05:43:32.827Z,97983.28
2022-07-29T05:45:59.857Z,97985.94
2022-07-29T05:48:26.898Z,97989.13
2022-07-29T05:50:54.156Z,97984.84
2022-07-29T05:53:21.264Z,97988.31
2022-07-29T05:55:50.185Z,97987.78
2022-07-29T05:58:17.625Z,97989.91
2022-07-29T06:00:44.642Z,97985.38
2022-07-29T06:03:11.574Z,97992.31
2022-07-29T06:05:38.545Z,97983.56
2022-07-29T06:08:09.159Z,97987.59
2022-07-29T06:10:37.128Z,97990.00
2022-07-29T06:13:04.376Z,97979.59
2022-07-29T06:15:31.385Z,97991.50
2022-07-29T06:17:59.257Z,97986.44
2022-07-29T06:20:32.713Z,97985.34
2022-07-29T06:23:00.618Z,98002.88
2022-07-29T06:25:30.209Z,98004.13
2022-07-29T06:27:58.180Z,98006.97
2022-07-29T06:30:25.005Z,97998.38
2022-07-29T06:32:51.930Z,98007.59
2022-07-29T06:35:38.501Z,97995.50
2022-07-29T06:38:07.305Z,97984.41
2022-07-29T06:41:01.625Z,97988.00
2022-07-29T06:43:32.416Z,97980.69
2022-07-29T06:46:06.135Z,97999.28
2022-07-29T06:48:34.883Z,97995.38
2022-07-29T06:51:01.706Z,97997.06
2022-07-29T06:53:30.577Z,98007.38
2022-07-29T06:55:59.192Z,98008.47
2022-07-29T06:58:28.130Z,98004.59
2022-07-29T07:00:56.806Z,97998.78
2022-07-29T07:03:24.120Z,98003.31
2022-07-29T07:05:52.602Z,98006.94
2022-07-29T07:08:20.559Z,98006.00
2022-07-29T07:10:47.743Z,98007.41
2022-07-29T07:13:18.280Z,98004.69
2022-07-29T07:15:49.329Z,98000.03
2022-07-29T07:18:17.698Z,98003.03
2022-07-29T07:20:44.393Z,98001.44
2022-07-29T07:23:12.060Z,98005.56
2022-07-29T07:25:38.805Z,98004.81
2022-07-29T07:28:05.612Z,97999.03
2022-07-29T07:30:32.588Z,97995.63
2022-07-29T07:33:00.347Z,97995.94
2022-07-29T07:35:28.670Z,97992.53
2022-07-29T07:37:57.811Z,97986.19
2022-07-29T07:40:26.470Z,97990.06
2022-07-29T07:42:53.237Z,97981.44
2022-07-29T07:45:20.017Z,97988.25
2022-07-29T07:47:47.715Z,97983.00
2022-07-29T07:50:18.691Z,97979.34
2022-07-29T07:52:58.656Z,97984.50
2022-07-29T07:55:27.029Z,97976.84
2022-07-29T07:57:55.019Z,97971.88
2022-07-29T08:00:23.365Z,97976.34
2022-07-29T08:02:51.519Z,97972.38
2022-07-29T08:05:19.402Z,97980.63
2022-07-29T08:07:48.071Z,97984.28
2022-07-29T08:10:36.582Z,97986.50
2022-07-29T08:13:12.916Z,97983.47
2022-07-29T08:15:42.480Z,97982.38
2022-07-29T08:18:09.550Z,97978.41
2022-07-29T08:20:39.284Z,97981.34
2022-07-29T08:23:09.611Z,97970.78
2022-07-29T08:25:40.226Z,97971.47
2022-07-29T08:28:07.393Z,97978.47
2022-07-29T08:30:34.670Z,97983.34
2022-07-29T08:33:02.068Z,97983.88
2022-07-29T08:35:34.813Z,97980.59
2022-07-29T08:38:04.285Z,97968.31
2022-07-29T08:40:32.670Z,97973.44
2022-07-29T08:43:06.760Z,97979.41
2022-07-29T08:45:49.942Z,97974.06
2022-07-29T08:48:23.764Z,97979.00
2022-07-29T08:50:56.991Z,97973.34
2022-07-29T08:53:28.259Z,97976.34
2022-07-29T08:55:57.018Z,97977.13
2022-07-29T08:58:25.893Z,97967.38
2022-07-29T09:00:56.101Z,97971.19
2022-07-29T09:03:32.488Z,97974.91
2022-07-29T09:06:00.358Z,97968.75
2022-07-29T09:08:28.032Z,97974.59
2022-07-29T09:10:57.243Z,97971.91
2022-07-29T09:13:24.279Z,97972.66
2022-07-29T09:15:51.045Z,97969.00
2022-07-29T09:18:46.939Z,97963.00
2022-07-29T09:21:36.190Z,97964.69
2022-07-29T09:24:15.149Z,97956.94
2022-07-29T09:26:46.450Z,97951.53
2022-07-29T09:29:19.551Z,97959.31
2022-07-29T09:31:50.614Z,97956.28
2022-07-29T09:34:32.111Z,97956.75
2022-07-29T09:36:59.110Z,97950.75
2022-07-29T09:39:36.321Z,97947.94
2022-07-29T09:42:06.982Z,97956.31
2022-07-29T09:44:49.494Z,97943.66
2022-07-29T09:47:19.020Z,97942.84
2022-07-29T09:50:01.112Z,97950.91
2022-07-29T09:52:30.287Z,97950.19
2022-07-29T09:55:09.325Z,97946.59
2022-07-29T09:57:36.167Z,97939.97
2022-07-29T10:00:07.024Z,97946.16
2022-07-29T10:02:36.743Z,97957.25
2022-07-29T10:05:07.498Z,97943.16
2022-07-29T10:07:57.761Z,97949.97
2022-07-29T10:10:34.686Z,97952.03
2022-07-29T10:13:12.091Z,97946.16
2022-07-29T10:15:45.264Z,97945.22
2022-07-29T10:18:14.992Z,97947.63
2022-07-29T10:20:42.412Z,97953.63
2022-07-29T10:23:10.719Z,97954.72
2022-07-29T10:25:37.904Z,97943.94
2022-07-29T10:28:07.606Z,97945.19
2022-07-29T10:30:35.260Z,97960.13
2022-07-29T10:33:45.718Z,97956.66
2022-07-29T10:37:04.972Z,97955.00
2022-07-29T10:39:49.798Z,97941.78
2022-07-29T10:42:34.057Z,97941.63
2022-07-29T10:45:04.893Z,97935.84
2022-07-29T10:47:32.649Z,97929.66
2022-07-29T10:50:05.169Z,97920.41
2022-07-29T10:52:50.498Z,97926.63
2022-07-29T10:55:45.412Z,97928.28
2022-07-29T10:58:20.095Z,97917.56
2022-07-29T11:00:51.715Z,97918.81
2022-07-29T11:03:49.211Z,97913.31
2022-07-29T11:06:26.150Z,97915.81
2022-07-29T11:09:20.333Z,97909.44
2022-07-29T11:11:53.253Z,97896.25
2022-07-29T11:15:09.716Z,97906.06
2022-07-29T11:18:01.668Z,97894.88
2022-07-29T11:20:51.239Z,97899.66
2022-07-29T11:23:33.844Z,97901.91
2022-07-29T11:26:10.849Z,97901.28
2022-07-29T11:29:23.235Z,97905.25
2022-07-29T11:31:56.663Z,97909.72
2022-07-29T11:34:34.858Z,97911.81
2022-07-29T11:37:08.107Z,97902.06
2022-07-29T11:39:37.839Z,97903.09
2022-07-29T11:42:28.508Z,97893.59
2022-07-29T11:45:42.876Z,97900.28
2022-07-29T11:48:28.383Z,97889.63
2022-07-29T11:50:49.554Z,97892.31
2022-07-29T11:53:17.087Z,97891.78
2022-07-29T11:55:51.527Z,97885.09
2022-07-29T11:58:25.073Z,97889.25
2022-07-29T12:00:55.742Z,97879.41
2022-07-29T12:03:33.581Z,97879.16
2022-07-29T12:06:18.283Z,97888.66
2022-07-29T12:08:47.519Z,97883.84
2022-07-29T12:11:21.649Z,97886.81
2022-07-29T12:13:53.149Z,97875.56
2022-07-29T12:16:29.446Z,97871.28
2022-07-29T12:19:02.064Z,97862.41
2022-07-29T12:21:31.066Z,97854.84
2022-07-29T12:24:05.758Z,97852.56
2022-07-29T12:26:36.849Z,97840.75
2022-07-29T12:29:04.271Z,97830.03
2022-07-29T12:31:44.121Z,97839.28
2022-07-29T12:34:30.342Z,97842.94
2022-07-29T12:36:57.395Z,97833.69
2022-07-29T12:39:27.360Z,97831.69
2022-07-29T12:42:04.741Z,97832.34
2022-07-29T12:44:52.240Z,97835.06
2022-07-29T12:47:21.222Z,97832.81
2022-07-29T12:49:50.096Z,97831.91
2022-07-29T12:52:31.872Z,97827.94
2022-07-29T12:54:59.151Z,97834.22
2022-07-29T12:57:26.865Z,97839.06
2022-07-29T13:00:11.579Z,97824.19
2022-07-29T13:02:40.274Z,97810.75
2022-07-29T13:05:09.277Z,97821.84
2022-07-29T13:07:54.404Z,97817.75
2022-07-29T13:10:26.052Z,97816.78
2022-07-29T13:13:06.836Z,97804.13
2022-07-29T13:15:34.949Z,97809.97
2022-07-29T13:18:02.114Z,97803.91
2022-07-29T13:20:30.797Z,97802.16
2022-07-29T13:23:00.893Z,97809.13
2022-07-29T13:25:33.143Z,97803.06
2022-07-29T13:28:00.807Z,97806.00
2022-07-29T13:30:28.008Z,97797.16
2022-07-29T13:32:56.176Z,97793.22
2022-07-29T13:35:23.240Z,97795.78
2022-07-29T13:37:50.001Z,97792.34
2022-07-29T13:40:18.888Z,97790.88
2022-07-29T13:42:45.710Z,97782.22
2022-07-29T13:45:13.864Z,97787.00
2022-07-29T13:47:43.600Z,97792.03
2022-07-29T13:50:14.379Z,97792.28
2022-07-29T13:52:41.105Z,97796.09
2022-07-29T13:55:09.111Z,97798.00
2022-07-29T13:57:37.147Z,97794.19
2022-07-29T14:00:04.660Z,97798.72
2022-07-29T14:02:31.371Z,97790.09
2022-07-29T14:04:58.148Z,97792.28
2022-07-29T14:07:25.011Z,97794.91
2022-07-29T14:09:52.149Z,97796.69
2022-07-29T14:12:20.040Z,97807.72
2022-07-29T14:14:47.298Z,97803.41
2022-07-29T14:17:15.093Z,97814.88
2022-07-29T14:19:42.672Z,97826.97
2022-07-29T14:22:11.022Z,97839.00
2022-07-29T14:24:39.091Z,97843.72
2022-07-29T14:27:08.948Z,97850.03
2022-07-29T14:29:38.224Z,97865.31
2022-07-29T14:32:08.106Z,97864.59
2022-07-29T14:34:36.715Z,97887.00
2022-07-29T14:37:06.437Z,97906.72
2022-07-29T14:39:38.147Z,97904.59
2022-07-29T14:42:09.551Z,97889.56
2022-07-29T14:44:39.030Z,97898.28
2022-07-29T14:47:07.839Z,97910.28
2022-07-29T14:49:35.991Z,97932.97
2022-07-29T14:52:03.612Z,97932.88
2022-07-29T14:54:30.632Z,97949.09
2022-07-29T14:56:58.910Z,97961.03
2022-07-29T14:59:27.218Z,97969.16
2022-07-29T15:01:54.261Z,97980.13
2022-07-29T15:04:21.302Z,97997.03
2022-07-29T15:06:48.758Z,97996.63
2022-07-29T15:09:15.572Z,97992.59
2022-07-29T15:11:43.092Z,97990.22
2022-07-29T15:14:11.064Z,97995.53
2022-07-29T15:16:41.997Z,97996.59
2022-07-29T15:19:12.301Z,97988.56
2022-07-29T15:21:41.604Z,97988.56
2022-07-29T15:24:19.953Z,97988.03
2022-07-29T15:26:48.659Z,97984.06
2022-07-29T15:29:16.888Z,97999.28
2022-07-29T15:31:44.285Z,97991.31
2022-07-29T15:34:11.004Z,98001.44
2022-07-29T15:36:53.768Z,98004.66
2022-07-29T15:39:23.336Z,98013.16
2022-07-29T15:41:51.772Z,98023.22
2022-07-29T15:44:19.782Z,98023.47
2022-07-29T15:47:04.405Z,98021.34
2022-07-29T15:49:48.594Z,98025.53
2022-07-29T15:52:25.886Z,98024.19
2022-07-29T15:54:56.708Z,98027.16
2022-07-29T15:57:24.498Z,98023.72
2022-07-29T15:59:52.284Z,98030.41
2022-07-29T16:02:19.069Z,98035.19
2022-07-29T16:04:46.568Z,98050.91
2022-07-29T16:07:14.295Z,98044.53
2022-07-29T16:09:42.149Z,98041.50
2022-07-29T16:12:14.593Z,98050.09
2022-07-29T16:14:43.979Z,98044.78
2022-07-29T16:17:14.824Z,98037.00
2022-07-29T16:19:43.407Z,98045.00
2022-07-29T16:22:12.530Z,98028.44
2022-07-29T16:24:40.293Z,98020.19
2022-07-29T16:27:09.901Z,98025.78
2022-07-29T16:29:37.357Z,98011.09
2022-07-29T16:32:06.843Z,98024.97
2022-07-29T16:34:36.874Z,98017.75
2022-07-29T16:37:07.023Z,98021.75
2022-07-29T16:39:33.832Z,98010.34
2022-07-29T16:42:03.058Z,98020.50
2022-07-29T16:44:31.899Z,98023.69
2022-07-29T16:46:59.688Z,98033.31
2022-07-29T16:49:28.148Z,98031.97
2022-07-29T16:51:55.059Z,98021.84
2022-07-29T16:54:21.932Z,98022.66
2022-07-29T16:56:49.761Z,98023.47
2022-07-29T16:59:16.990Z,98024.25
2022-07-29T17:01:44.007Z,98029.59
2022-07-29T17:04:11.950Z,98032.50
2022-07-29T17:06:40.911Z,98029.50
2022-07-29T17:09:12.067Z,98040.44
2022-07-29T17:11:52.781Z,98048.16
2022-07-29T17:14:36.188Z,98023.16
2022-07-29T17:17:13.782Z,98031.16
2022-07-29T17:19:45.938Z,98038.06
2022-07-29T17:22:19.063Z,98048.22
2022-07-29T17:24:48.970Z,98049.81
2022-07-29T17:27:16.702Z,98040.72
2022-07-29T17:29:43.771Z,98044.78
2022-07-29T17:32:16.247Z,98033.03
2022-07-29T17:34:43.492Z,98041.53
2022-07-29T17:37:11.930Z,98026.63
2022-07-29T17:39:41.207Z,98034.34
2022-07-29T17:42:13.859Z,98039.41
2022-07-29T17:44:41.339Z,98037.53
2022-07-29T17:47:15.581Z,98049.25
2022-07-29T17:49:45.048Z,98053.03
2022-07-29T17:52:11.860Z,98056.78
2022-07-29T17:54:38.671Z,98056.75
2022-07-29T17:57:05.465Z,98050.38
2022-07-29T17:59:32.207Z,98057.84
2022-07-29T18:01:59.054Z,98062.38
2022-07-29T18:04:25.919Z,98055.72
2022-07-29T18:06:52.666Z,98044.47
2022-07-29T18:09:19.817Z,98045.53
2022-07-29T18:11:47.514Z,98039.72
2022-07-29T18:14:14.567Z,98035.72
2022-07-29T18:16:41.328Z,98039.19
2022-07-29T18:19:08.202Z,98041.06
2022-07-29T18:21:51.325Z,98036.53
2022-07-29T18:24:25.217Z,98035.72
2022-07-29T18:26:52.296Z,98050.34
2022-07-29T18:29:19.069Z,98049.78
2022-07-29T18:31:45.986Z,98051.91
2022-07-29T18:34:12.708Z,98042.25
2022-07-29T18:36:39.410Z,98047.84
2022-07-29T18:39:06.194Z,98041.75
2022-07-29T18:41:33.434Z,98035.16
2022-07-29T18:44:00.189Z,98045.78
2022-07-29T18:46:26.982Z,98048.75
2022-07-29T18:48:53.784Z,98055.13
2022-07-29T18:51:22.238Z,98057.78
2022-07-29T18:53:49.294Z,98062.59
2022-07-29T18:56:16.225Z,98056.69
2022-07-29T18:58:43.151Z,98066.31
2022-07-29T19:01:12.458Z,98073.25
2022-07-29T19:03:43.312Z,98092.31
2022-07-29T19:06:10.021Z,98085.84
2022-07-29T19:08:36.773Z,98082.63
2022-07-29T19:11:03.593Z,98086.88
2022-07-29T19:13:30.920Z,98078.31
2022-07-29T19:15:57.706Z,98087.44
2022-07-29T19:18:24.709Z,98085.09
2022-07-29T19:20:51.483Z,98078.69
2022-07-29T19:23:18.480Z,98102.44
2022-07-29T19:25:53.518Z,98104.03
2022-07-29T19:28:22.074Z,98105.63
2022-07-29T19:30:49.646Z,98110.69
2022-07-29T19:33:18.824Z,98118.94
2022-07-29T19:35:47.629Z,98135.47
2022-07-29T19:38:16.031Z,98141.19
2022-07-29T19:40:43.553Z,98125.72
2022-07-29T19:43:50.752Z,98145.72
2022-07-29T19:45:57.433Z,98153.47
2022-07-29T19:48:24.144Z,98152.94
2022-07-29T19:50:51.289Z,98136.16
2022-07-29T19:53:18.155Z,98151.88
2022-07-29T19:55:44.974Z,98144.97
2022-07-29T19:58:12.947Z,98155.09
2022-07-29T20:00:41.717Z,98147.09
2022-07-29T20:03:10.494Z,98168.19
2022-07-29T20:05:37.782Z,98181.41
2022-07-29T20:08:06.176Z,98176.06
2022-07-29T20:10:34.473Z,98183.44
2022-07-29T20:13:01.237Z,98197.88
2022-07-29T20:15:28.115Z,98188.13
2022-07-29T20:17:57.351Z,98187.09
2022-07-29T20:20:25.188Z,98177.09
2022-07-29T20:22:53.051Z,98203.19
2022-07-29T20:25:19.907Z,98189.97
2022-07-29T20:27:46.632Z,98192.47
2022-07-29T20:30:14.332Z,98190.47
2022-07-29T20:32:41.904Z,98197.84
2022-07-29T20:35:09.932Z,98199.66
2022-07-29T20:37:52.142Z,98203.31
2022-07-29T20:40:23.419Z,98195.38
2022-07-29T20:42:50.117Z,98196.94
2022-07-29T20:45:16.901Z,98189.28
2022-07-29T20:47:43.608Z,98177.16
2022-07-29T20:50:10.508Z,98186.72
2022-07-29T20:52:40.370Z,98172.69
2022-07-29T20:55:09.098Z,98174.38
2022-07-29T20:57:39.427Z,98176.03
2022-07-29T21:00:07.565Z,98164.59
2022-07-29T21:02:34.452Z,98173.63
2022-07-29T21:05:01.300Z,98168.59
2022-07-29T21:07:28.047Z,98170.66
2022-07-29T21:09:54.779Z,98160.06
2022-07-29T21:12:22.590Z,98153.19
2022-07-29T21:14:49.611Z,98154.31
2022-07-29T21:17:21.242Z,98147.97
2022-07-29T21:19:53.168Z,98144.88
2022-07-29T21:22:22.152Z,98138.25
2022-07-29T21:24:49.911Z,98137.91
2022-07-29T21:27:38.286Z,98140.88
2022-07-29T21:30:08.326Z,98127.88
2022-07-29T21:32:36.881Z,98139.34
2022-07-29T21:35:18.262Z,98140.41
2022-07-29T21:37:51.712Z,98143.84
2022-07-29T21:40:18.675Z,98136.94
2022-07-29T21:42:45.529Z,98132.66
2022-07-29T21:45:13.466Z,98128.28
2022-07-29T21:47:40.183Z,98136.84
2022-07-29T21:50:07.525Z,98140.31
2022-07-29T21:52:34.270Z,98138.41
2022-07-29T21:55:04.781Z,98144.81
2022-07-29T21:57:32.132Z,98142.13
2022-07-29T22:00:02.748Z,98133.59
2022-07-29T22:02:31.056Z,98141.44
2022-07-29T22:04:58.073Z,98126.19
2022-07-29T22:07:24.844Z,98136.38
2022-07-29T22:10:11.695Z,98129.91
2022-07-29T22:12:38.487Z,98134.19
2022-07-29T22:15:05.683Z,98132.34
2022-07-29T22:17:32.417Z,98134.44
2022-07-29T22:19:59.549Z,98136.03
2022-07-29T22:22:27.098Z,98131.03
2022-07-29T22:24:53.862Z,98116.69
2022-07-29T22:27:22.248Z,98118.28
2022-07-29T22:29:49.094Z,98115.56
2022-07-29T22:32:15.858Z,98107.53
2022-07-29T22:34:42.674Z,98107.81
2022-07-29T22:37:09.357Z,98107.53
2022-07-29T22:39:36.082Z,98115.53
2022-07-29T22:42:02.750Z,98121.38
2022-07-29T22:44:29.484Z,98123.47
2022-07-29T22:46:56.433Z,98119.75
2022-07-29T22:49:23.286Z,98111.22
2022-07-29T22:51:49.999Z,98105.91
2022-07-29T22:54:16.722Z,98099.50
2022-07-29T22:56:43.523Z,98104.53
2022-07-29T22:59:10.240Z,98108.72
2022-07-29T23:01:38.511Z,98106.31
2022-07-29T23:04:06.723Z,98109.72
2022-07-29T23:06:34.212Z,98097.25
2022-07-29T23:09:01.041Z,98096.16
2022-07-29T23:11:27.844Z,98092.94
2022-07-29T23:13:54.559Z,98093.69
2022-07-29T23:16:26.062Z,98103.31
2022-07-29T23:18:53.038Z,98110.13
2022-07-29T23:21:20.904Z,98103.44
2022-07-29T23:23:49.011Z,98106.63
2022-07-29T23:26:17.147Z,98093.00
2022-07-29T23:28:46.152Z,98084.25
2022-07-29T23:31:13.528Z,98087.97
2022-07-29T23:33:41.917Z,98096.50
2022-07-29T23:36:08.722Z,98086.91
2022-07-29T23:38:41.065Z,98093.50
2022-07-29T23:41:09.684Z,98095.94
2022-07-29T23:43:37.537Z,98086.06
2022-07-29T23:46:04.670Z,98076.97
2022-07-29T23:48:34.033Z,98092.72
2022-07-29T23:51:01.111Z,98091.09
2022-07-29T23:53:28.786Z,98090.56
2022-07-29T23:55:56.713Z,98097.75
2022-07-29T23:58:23.560Z,98087.59
